Metar z połowy godziny Komunikat METAR ze strony awiacja.imgw.pl Metar Mil EPMB METAR EPMB 261130Z 27010KT 9999 FEW022 BKN033 02/00 Q1004 RMK 023 085 7/2=